createdAt,value
2022-10-09T00:02:23.889Z,101134.90
2022-10-09T00:05:31.370Z,101138.70
2022-10-09T00:08:39.406Z,101141.55
2022-10-09T00:11:46.012Z,101144.56
2022-10-09T00:14:52.791Z,101145.33
2022-10-09T00:17:59.400Z,101143.84
2022-10-09T00:21:06.865Z,101149.80
2022-10-09T00:24:15.715Z,101155.96
2022-10-09T00:27:24.506Z,101161.98
2022-10-09T00:30:31.876Z,101165.13
2022-10-09T00:33:39.440Z,101163.77
2022-10-09T00:36:48.410Z,101163.53
2022-10-09T00:39:55.174Z,101168.23
2022-10-09T00:43:02.308Z,101172.48
2022-10-09T00:46:16.847Z,101175.11
2022-10-09T00:49:28.999Z,101173.34
2022-10-09T00:52:35.948Z,101177.07
2022-10-09T00:55:44.060Z,101178.17
2022-10-09T00:58:56.270Z,101184.81
2022-10-09T01:02:03.518Z,101181.95
2022-10-09T01:05:12.030Z,101175.91
2022-10-09T01:08:26.244Z,101183.55
2022-10-09T01:11:42.480Z,101192.36
2022-10-09T01:14:57.873Z,101189.96
2022-10-09T01:18:09.175Z,101193.65
2022-10-09T01:21:19.681Z,101192.03
2022-10-09T01:24:31.162Z,101194.87
2022-10-09T01:27:39.072Z,101196.59
2022-10-09T01:30:47.189Z,101205.56
2022-10-09T01:33:53.998Z,101206.39
2022-10-09T01:37:02.065Z,101206.00
2022-10-09T01:40:12.064Z,101207.97
2022-10-09T01:43:19.263Z,101212.41
2022-10-09T01:46:29.211Z,101217.42
2022-10-09T01:49:52.906Z,101222.40
2022-10-09T01:53:02.302Z,101225.52
2022-10-09T01:56:15.148Z,101228.22
2022-10-09T01:59:23.457Z,101229.13
2022-10-09T02:02:30.933Z,101232.98
2022-10-09T02:05:38.530Z,101236.56
2022-10-09T02:08:48.099Z,101241.80
2022-10-09T02:11:58.627Z,101241.70
2022-10-09T02:15:05.465Z,101252.64
2022-10-09T02:18:16.005Z,101259.52
2022-10-09T02:21:27.435Z,101264.96
2022-10-09T02:24:34.876Z,101269.94
2022-10-09T02:27:41.982Z,101270.20
2022-10-09T02:30:55.625Z,101267.63
2022-10-09T02:34:05.671Z,101259.85
2022-10-09T02:37:12.351Z,101265.77
2022-10-09T02:40:19.405Z,101264.33
2022-10-09T02:43:26.117Z,101267.54
2022-10-09T02:46:32.947Z,101268.90
2022-10-09T02:49:40.062Z,101276.47
2022-10-09T02:52:47.099Z,101280.60
2022-10-09T02:55:53.994Z,101280.84
2022-10-09T02:59:00.852Z,101291.59
2022-10-09T03:02:07.723Z,101295.08
2022-10-09T03:05:14.302Z,101304.19
2022-10-09T03:08:20.865Z,101304.26
2022-10-09T03:11:28.096Z,101309.83
2022-10-09T03:14:35.284Z,101310.44
2022-10-09T03:17:42.036Z,101318.81
2022-10-09T03:20:49.097Z,101320.03
2022-10-09T03:23:56.581Z,101321.42
2022-10-09T03:27:03.257Z,101325.16
2022-10-09T03:30:12.232Z,101331.35
2022-10-09T03:33:18.790Z,101336.27
2022-10-09T03:36:25.312Z,101344.10
2022-10-09T03:39:32.332Z,101346.38
2022-10-09T03:42:38.993Z,101346.90
2022-10-09T03:45:45.812Z,101344.41
2022-10-09T03:48:52.509Z,101344.86
2022-10-09T03:51:59.075Z,101347.94
2022-10-09T03:55:07.120Z,101350.44
2022-10-09T03:58:13.908Z,101353.75
2022-10-09T04:01:20.787Z,101350.11
2022-10-09T04:04:28.052Z,101352.59
2022-10-09T04:07:34.914Z,101361.34
2022-10-09T04:10:41.561Z,101360.91
2022-10-09T04:13:48.293Z,101362.84
2022-10-09T04:16:55.070Z,101361.93
2022-10-09T04:20:01.661Z,101363.09
2022-10-09T04:23:08.233Z,101363.09
2022-10-09T04:26:15.677Z,101364.58
2022-10-09T04:29:22.380Z,101367.73
2022-10-09T04:32:29.129Z,101365.07
2022-10-09T04:35:35.583Z,101367.64
2022-10-09T04:38:42.356Z,101373.73
2022-10-09T04:41:49.007Z,101381.93
2022-10-09T04:44:55.703Z,101385.43
2022-10-09T04:48:02.599Z,101387.21
2022-10-09T04:51:10.472Z,101387.56
2022-10-09T04:54:17.036Z,101389.88
2022-10-09T04:57:23.707Z,101389.52
2022-10-09T05:00:30.298Z,101390.52
2022-10-09T05:03:37.893Z,101394.61
2022-10-09T05:06:44.452Z,101400.70
2022-10-09T05:09:51.310Z,101401.52
2022-10-09T05:12:57.809Z,101407.00
2022-10-09T05:16:07.347Z,101413.05
2022-10-09T05:19:12.468Z,101413.39
2022-10-09T05:22:19.197Z,101416.05
2022-10-09T05:25:26.036Z,101423.42
2022-10-09T05:28:33.093Z,101428.42
2022-10-09T05:31:39.905Z,101430.17
2022-10-09T05:34:46.616Z,101431.41
2022-10-09T05:37:53.359Z,101437.33
2022-10-09T05:41:01.349Z,101443.13
2022-10-09T05:44:08.946Z,101446.30
2022-10-09T05:47:17.981Z,101449.39
2022-10-09T05:50:24.943Z,101452.91
2022-10-09T05:53:32.090Z,101455.95
2022-10-09T05:56:40.360Z,101459.95
2022-10-09T05:59:47.294Z,101464.71
2022-10-09T06:02:53.958Z,101470.34
2022-10-09T06:06:03.753Z,101469.90
2022-10-09T06:09:11.900Z,101476.03
2022-10-09T06:12:18.531Z,101479.09
2022-10-09T06:15:25.080Z,101485.09
2022-10-09T06:18:31.686Z,101485.66
2022-10-09T06:21:38.244Z,101488.71
2022-10-09T06:24:44.960Z,101496.64
2022-10-09T06:27:51.709Z,101497.69
2022-10-09T06:31:03.669Z,101502.16
2022-10-09T06:34:12.260Z,101500.55
2022-10-09T06:37:18.759Z,101506.26
2022-10-09T06:40:25.524Z,101502.91
2022-10-09T06:43:32.273Z,101512.33
2022-10-09T06:46:41.095Z,101521.27
2022-10-09T06:49:47.698Z,101525.48
2022-10-09T06:52:54.285Z,101532.89
2022-10-09T06:56:01.026Z,101534.73
2022-10-09T06:59:08.630Z,101540.19
2022-10-09T07:02:15.288Z,101546.00
2022-10-09T07:05:21.970Z,101552.27
2022-10-09T07:08:28.669Z,101550.13
2022-10-09T07:11:36.933Z,101550.77
2022-10-09T07:14:43.537Z,101560.77
2022-10-09T07:17:50.234Z,101560.73
2022-10-09T07:20:57.302Z,101566.96
2022-10-09T07:24:04.702Z,101569.15
2022-10-09T07:27:11.364Z,101567.98
2022-10-09T07:30:18.146Z,101567.33
2022-10-09T07:33:24.813Z,101565.41
2022-10-09T07:36:31.684Z,101570.83
2022-10-09T07:39:42.894Z,101571.31
2022-10-09T07:42:51.757Z,101574.15
2022-10-09T07:46:02.275Z,101572.60
2022-10-09T07:49:09.101Z,101577.73
2022-10-09T07:52:15.765Z,101579.96
2022-10-09T07:55:22.449Z,101577.88
2022-10-09T07:58:29.096Z,101584.18
2022-10-09T08:01:37.091Z,101587.15
2022-10-09T08:04:43.682Z,101588.07
2022-10-09T08:07:50.384Z,101589.53
2022-10-09T08:10:57.142Z,101591.23
2022-10-09T08:14:03.771Z,101596.90
2022-10-09T08:17:10.465Z,101599.14
2022-10-09T08:20:17.307Z,101601.58
2022-10-09T08:23:23.943Z,101604.67
2022-10-09T08:26:31.987Z,101609.61
2022-10-09T08:29:40.376Z,101613.30
2022-10-09T08:32:47.379Z,101610.61
2022-10-09T08:35:55.128Z,101611.07
2022-10-09T08:39:02.133Z,101613.59
2022-10-09T08:42:19.378Z,101609.61
2022-10-09T08:45:26.039Z,101618.77
2022-10-09T08:48:37.973Z,101619.21
2022-10-09T08:51:46.336Z,101618.61
2022-10-09T08:54:54.119Z,101619.26
2022-10-09T08:58:05.767Z,101624.76
2022-10-09T09:01:22.583Z,101617.02
2022-10-09T09:04:39.686Z,101613.77
2022-10-09T09:07:55.799Z,101617.41
2022-10-09T09:11:21.680Z,101619.30
2022-10-09T09:14:43.551Z,101617.64
2022-10-09T09:17:59.867Z,101614.47
2022-10-09T09:21:14.691Z,101614.40
2022-10-09T09:24:23.224Z,101615.02
2022-10-09T09:27:33.197Z,101609.67
2022-10-09T09:30:45.691Z,101604.44
2022-10-09T09:33:58.606Z,101609.71
2022-10-09T09:37:05.657Z,101610.11
2022-10-09T09:40:36.184Z,101611.67
2022-10-09T09:43:44.007Z,101615.52
2022-10-09T09:46:51.863Z,101620.16
2022-10-09T09:50:01.164Z,101620.08
2022-10-09T09:53:08.509Z,101619.55
2022-10-09T09:56:15.667Z,101619.27
2022-10-09T09:59:38.075Z,101622.61
2022-10-09T10:02:44.904Z,101626.33
2022-10-09T10:05:52.092Z,101622.56
2022-10-09T10:09:03.865Z,101624.73
2022-10-09T10:12:19.541Z,101628.09
2022-10-09T10:15:29.757Z,101626.95
2022-10-09T10:18:42.635Z,101629.29
2022-10-09T10:21:56.287Z,101627.56
2022-10-09T10:25:03.471Z,101627.68
2022-10-09T10:28:19.101Z,101633.17
2022-10-09T10:31:41.374Z,101637.17
2022-10-09T10:34:53.696Z,101642.90
2022-10-09T10:38:06.839Z,101639.66
2022-10-09T10:41:21.044Z,101633.83
2022-10-09T10:44:38.631Z,101638.72
2022-10-09T10:47:50.223Z,101643.70
2022-10-09T10:51:07.711Z,101636.38
2022-10-09T10:54:29.542Z,101641.83
2022-10-09T10:57:44.428Z,101635.02
2022-10-09T11:01:05.413Z,101635.73
2022-10-09T11:04:29.968Z,101632.52
2022-10-09T11:07:43.114Z,101640.48
2022-10-09T11:11:00.487Z,101637.70
2022-10-09T11:14:20.197Z,101640.58
2022-10-09T11:17:34.814Z,101638.88
2022-10-09T11:20:56.217Z,101637.08
2022-10-09T11:24:24.124Z,101638.73
2022-10-09T11:27:39.061Z,101643.04
2022-10-09T11:30:52.337Z,101654.17
2022-10-09T11:34:04.548Z,101649.44
2022-10-09T11:37:17.515Z,101638.48
2022-10-09T11:40:27.767Z,101639.19
2022-10-09T11:43:47.866Z,101635.38
2022-10-09T11:47:02.025Z,101631.17
2022-10-09T11:50:27.061Z,101631.39
2022-10-09T11:53:37.000Z,101626.52
2022-10-09T11:56:55.600Z,101620.40
2022-10-09T12:00:11.254Z,101614.89
2022-10-09T12:03:30.158Z,101611.91
2022-10-09T12:06:48.349Z,101613.82
2022-10-09T12:10:01.529Z,101608.07
2022-10-09T12:13:28.313Z,101602.80
2022-10-09T12:16:42.473Z,101611.42
2022-10-09T12:19:51.207Z,101611.73
2022-10-09T12:23:25.109Z,101597.69
2022-10-09T12:26:29.070Z,101596.29
2022-10-09T12:29:41.684Z,101594.92
2022-10-09T12:32:52.674Z,101600.81
2022-10-09T12:36:06.322Z,101601.84
2022-10-09T12:39:20.425Z,101594.75
2022-10-09T12:42:28.034Z,101604.47
2022-10-09T12:45:34.931Z,101602.20
2022-10-09T12:48:43.752Z,101601.13
2022-10-09T12:51:56.430Z,101599.98
2022-10-09T12:55:03.740Z,101601.74
2022-10-09T12:58:17.609Z,101595.96
2022-10-09T13:01:24.979Z,101589.44
2022-10-09T13:04:34.964Z,101589.98
2022-10-09T13:07:45.344Z,101589.79
2022-10-09T13:10:55.690Z,101590.95
2022-10-09T13:14:03.006Z,101581.60
2022-10-09T13:17:26.525Z,101570.50
2022-10-09T13:20:34.309Z,101575.98
2022-10-09T13:23:40.937Z,101576.14
2022-10-09T13:26:47.602Z,101575.02
2022-10-09T13:29:54.275Z,101574.38
2022-10-09T13:33:01.127Z,101582.34
2022-10-09T13:36:08.611Z,101574.31
2022-10-09T13:39:16.593Z,101568.64
2022-10-09T13:42:25.139Z,101562.35
2022-10-09T13:45:31.801Z,101566.58
2022-10-09T13:48:39.594Z,101568.28
2022-10-09T13:51:46.256Z,101564.63
2022-10-09T13:54:52.776Z,101563.91
2022-10-09T13:57:59.459Z,101566.26
2022-10-09T14:01:06.301Z,101560.98
2022-10-09T14:04:13.057Z,101562.55
2022-10-09T14:07:19.664Z,101557.89
2022-10-09T14:10:26.821Z,101557.59
2022-10-09T14:13:33.492Z,101556.48
2022-10-09T14:16:40.278Z,101551.15
2022-10-09T14:19:46.871Z,101553.84
2022-10-09T14:22:53.570Z,101558.36
2022-10-09T14:26:05.144Z,101564.45
2022-10-09T14:29:11.978Z,101558.89
2022-10-09T14:32:18.619Z,101557.21
2022-10-09T14:35:25.388Z,101555.77
2022-10-09T14:38:32.015Z,101555.89
2022-10-09T14:41:40.215Z,101557.84
2022-10-09T14:44:46.819Z,101558.48
2022-10-09T14:47:53.457Z,101549.50
2022-10-09T14:51:04.830Z,101542.55
2022-10-09T14:54:12.206Z,101539.30
2022-10-09T14:57:19.254Z,101540.79
2022-10-09T15:00:25.852Z,101540.20
2022-10-09T15:03:33.264Z,101534.13
2022-10-09T15:06:39.814Z,101533.04
2022-10-09T15:09:46.479Z,101532.02
2022-10-09T15:12:55.733Z,101532.30
2022-10-09T15:16:03.947Z,101530.34
2022-10-09T15:19:10.621Z,101527.87
2022-10-09T15:22:17.409Z,101524.71
2022-10-09T15:25:25.338Z,101524.03
2022-10-09T15:28:32.017Z,101523.98
2022-10-09T15:31:41.227Z,101529.23
2022-10-09T15:34:46.454Z,101527.96
2022-10-09T15:37:55.679Z,101528.20
2022-10-09T15:41:02.689Z,101530.09
2022-10-09T15:44:14.204Z,101530.95
2022-10-09T15:47:39.330Z,101530.02
2022-10-09T15:50:51.643Z,101532.48
2022-10-09T15:53:59.957Z,101523.56
2022-10-09T15:57:09.665Z,101523.79
2022-10-09T16:00:17.631Z,101518.36
2022-10-09T16:03:24.145Z,101516.76
2022-10-09T16:06:30.848Z,101514.06
2022-10-09T16:09:38.009Z,101514.40
2022-10-09T16:12:44.653Z,101517.85
2022-10-09T16:15:51.573Z,101518.31
2022-10-09T16:19:00.187Z,101524.38
2022-10-09T16:22:07.021Z,101524.35
2022-10-09T16:25:14.237Z,101527.94
2022-10-09T16:28:20.883Z,101530.80
2022-10-09T16:31:31.409Z,101533.73
2022-10-09T16:34:38.142Z,101532.95
2022-10-09T16:37:45.064Z,101536.23
2022-10-09T16:41:07.862Z,101538.55
2022-10-09T16:44:17.009Z,101535.28
2022-10-09T16:47:23.596Z,101536.76
2022-10-09T16:50:30.501Z,101535.98
2022-10-09T16:53:37.430Z,101539.03
2022-10-09T16:56:45.889Z,101541.29
2022-10-09T16:59:52.540Z,101542.19
2022-10-09T17:02:59.719Z,101546.30
2022-10-09T17:06:12.097Z,101543.31
2022-10-09T17:09:18.833Z,101549.62
2022-10-09T17:12:25.438Z,101554.29
2022-10-09T17:15:32.140Z,101558.71
2022-10-09T17:18:39.622Z,101556.48
2022-10-09T17:21:46.353Z,101559.88
2022-10-09T17:24:53.100Z,101559.82
2022-10-09T17:28:01.415Z,101561.35
2022-10-09T17:31:16.272Z,101561.56
2022-10-09T17:34:23.554Z,101559.49
2022-10-09T17:37:30.107Z,101562.65
2022-10-09T17:40:40.116Z,101557.98
2022-10-09T17:43:47.049Z,101556.47
2022-10-09T17:46:53.942Z,101555.48
2022-10-09T17:50:00.616Z,101562.45
2022-10-09T17:53:07.684Z,101562.31
2022-10-09T17:56:15.341Z,101561.89
2022-10-09T17:59:22.062Z,101565.88
2022-10-09T18:02:28.847Z,101565.42
2022-10-09T18:05:41.392Z,101565.77
2022-10-09T18:08:48.368Z,101566.84
2022-10-09T18:11:54.956Z,101566.09
2022-10-09T18:15:02.813Z,101564.73
2022-10-09T18:18:12.690Z,101568.77
2022-10-09T18:21:19.621Z,101566.39
2022-10-09T18:24:26.343Z,101565.82
2022-10-09T18:27:33.431Z,101564.76
2022-10-09T18:30:46.068Z,101563.82
2022-10-09T18:33:53.601Z,101561.29
2022-10-09T18:37:00.271Z,101558.02
2022-10-09T18:40:10.773Z,101567.30
2022-10-09T18:43:17.348Z,101562.05
2022-10-09T18:46:26.599Z,101562.29
2022-10-09T18:49:33.724Z,101559.45
2022-10-09T18:52:42.699Z,101559.92
2022-10-09T18:55:49.399Z,101561.88
2022-10-09T18:58:56.481Z,101556.50
2022-10-09T19:02:03.131Z,101557.28
2022-10-09T19:05:10.771Z,101560.20
2022-10-09T19:08:17.563Z,101555.83
2022-10-09T19:11:24.214Z,101555.68
2022-10-09T19:14:30.948Z,101550.82
2022-10-09T19:17:37.657Z,101547.82
2022-10-09T19:20:44.357Z,101548.34
2022-10-09T19:23:52.219Z,101544.59
2022-10-09T19:26:59.427Z,101546.27
2022-10-09T19:30:07.655Z,101545.67
2022-10-09T19:33:14.607Z,101542.62
2022-10-09T19:36:24.119Z,101542.46
2022-10-09T19:39:29.438Z,101542.23
2022-10-09T19:42:36.061Z,101544.83
2022-10-09T19:45:43.189Z,101547.27
2022-10-09T19:48:49.791Z,101546.84
2022-10-09T19:51:56.819Z,101546.85
2022-10-09T19:55:03.572Z,101548.34
2022-10-09T19:58:10.303Z,101545.92
2022-10-09T20:01:19.116Z,101546.62
2022-10-09T20:04:26.045Z,101545.64
2022-10-09T20:07:34.243Z,101544.04
2022-10-09T20:10:41.697Z,101543.08
2022-10-09T20:13:54.842Z,101543.70
2022-10-09T20:17:03.108Z,101541.27
2022-10-09T20:20:11.269Z,101540.29
2022-10-09T20:23:18.073Z,101536.22
2022-10-09T20:26:25.158Z,101536.80
2022-10-09T20:29:31.810Z,101541.14
2022-10-09T20:32:38.309Z,101539.42
2022-10-09T20:35:45.813Z,101541.77
2022-10-09T20:38:54.726Z,101544.68
2022-10-09T20:42:01.258Z,101546.67
2022-10-09T20:45:09.125Z,101545.96
2022-10-09T20:48:15.721Z,101544.20
2022-10-09T20:51:23.471Z,101541.30
2022-10-09T20:54:30.437Z,101543.96
2022-10-09T20:57:37.118Z,101539.16
2022-10-09T21:00:45.523Z,101537.54
2022-10-09T21:03:52.698Z,101536.89
2022-10-09T21:06:59.443Z,101541.33
2022-10-09T21:10:07.299Z,101540.45
2022-10-09T21:13:14.443Z,101538.45
2022-10-09T21:16:23.118Z,101537.50
2022-10-09T21:19:30.201Z,101534.23
2022-10-09T21:22:36.981Z,101533.45
2022-10-09T21:25:49.427Z,101530.08
2022-10-09T21:28:59.685Z,101526.80
2022-10-09T21:32:07.089Z,101526.22
2022-10-09T21:35:13.644Z,101523.55
2022-10-09T21:38:21.773Z,101519.42
2022-10-09T21:41:29.041Z,101518.55
2022-10-09T21:44:35.820Z,101520.69
2022-10-09T21:47:42.318Z,101519.16
2022-10-09T21:50:48.831Z,101519.07
2022-10-09T21:53:58.810Z,101517.95
2022-10-09T21:57:05.845Z,101514.14
2022-10-09T22:00:14.480Z,101518.71
2022-10-09T22:03:21.159Z,101516.56
2022-10-09T22:06:27.982Z,101518.56
2022-10-09T22:09:34.874Z,101519.61
2022-10-09T22:12:41.643Z,101516.06
2022-10-09T22:15:51.196Z,101517.29
2022-10-09T22:18:58.441Z,101509.02
2022-10-09T22:22:05.617Z,101509.45
2022-10-09T22:25:12.433Z,101506.80
2022-10-09T22:28:21.916Z,101503.79
2022-10-09T22:31:28.018Z,101498.39
2022-10-09T22:34:35.420Z,101494.13
2022-10-09T22:37:42.020Z,101497.16
2022-10-09T22:40:48.543Z,101497.97
2022-10-09T22:43:57.501Z,101494.17
2022-10-09T22:47:04.426Z,101496.16
2022-10-09T22:50:12.164Z,101496.52
2022-10-09T22:53:18.826Z,101493.67
2022-10-09T22:56:28.708Z,101489.22
2022-10-09T22:59:35.928Z,101490.17
2022-10-09T23:02:42.616Z,101494.31
2022-10-09T23:05:49.346Z,101492.83
2022-10-09T23:08:56.039Z,101492.15
2022-10-09T23:12:03.041Z,101492.42
2022-10-09T23:15:11.380Z,101488.12
2022-10-09T23:18:18.029Z,101483.42
2022-10-09T23:21:25.375Z,101480.70
2022-10-09T23:24:32.108Z,101477.07
2022-10-09T23:27:38.805Z,101477.92
2022-10-09T23:30:45.515Z,101475.25
2022-10-09T23:33:52.183Z,101471.23
2022-10-09T23:36:58.945Z,101465.52
2022-10-09T23:40:06.564Z,101464.05
2022-10-09T23:43:13.229Z,101459.41
2022-10-09T23:46:22.380Z,101461.98
2022-10-09T23:49:29.077Z,101461.78
2022-10-09T23:52:37.588Z,101452.14
2022-10-09T23:55:44.505Z,101450.67
2022-10-09T23:58:52.731Z,101455.45
